createdAt,value
2022-10-15T00:01:30.294Z,101191.69
2022-10-15T00:03:58.819Z,101186.72
2022-10-15T00:06:26.847Z,101190.38
2022-10-15T00:08:54.937Z,101189.47
2022-10-15T00:11:26.603Z,101188.53
2022-10-15T00:13:55.787Z,101190.38
2022-10-15T00:16:25.911Z,101193.03
2022-10-15T00:18:56.739Z,101199.19
2022-10-15T00:21:24.727Z,101200.94
2022-10-15T00:23:53.073Z,101201.22
2022-10-15T00:26:22.624Z,101205.63
2022-10-15T00:28:54.436Z,101194.41
2022-10-15T00:31:24.422Z,101201.72
2022-10-15T00:33:53.777Z,101177.66
2022-10-15T00:36:24.154Z,101194.34
2022-10-15T00:38:52.994Z,101197.06
2022-10-15T00:41:25.352Z,101184.03
2022-10-15T00:43:57.160Z,101188.38
2022-10-15T00:46:28.085Z,101178.78
2022-10-15T00:48:59.411Z,101183.97
2022-10-15T00:51:32.891Z,101188.50
2022-10-15T00:54:02.001Z,101192.16
2022-10-15T00:56:34.478Z,101187.09
2022-10-15T00:59:06.516Z,101185.72
2022-10-15T01:01:34.620Z,101195.38
2022-10-15T01:04:04.056Z,101192.13
2022-10-15T01:06:31.981Z,101186.66
2022-10-15T01:09:01.271Z,101187.16
2022-10-15T01:11:43.632Z,101185.91
2022-10-15T01:14:29.726Z,101181.47
2022-10-15T01:17:05.230Z,101191.81
2022-10-15T01:20:07.581Z,101188.31
2022-10-15T01:22:49.051Z,101186.47
2022-10-15T01:25:30.941Z,101186.75
2022-10-15T01:28:06.025Z,101194.03
2022-10-15T01:30:40.162Z,101187.22
2022-10-15T01:33:23.265Z,101192.22
2022-10-15T01:35:54.689Z,101180.34
2022-10-15T01:38:32.561Z,101178.50
2022-10-15T01:41:05.166Z,101173.16
2022-10-15T01:43:41.266Z,101174.84
2022-10-15T01:46:15.717Z,101177.44
2022-10-15T01:48:44.603Z,101171.91
2022-10-15T01:51:15.276Z,101177.00
2022-10-15T01:53:45.284Z,101182.13
2022-10-15T01:56:18.837Z,101177.91
2022-10-15T01:58:50.559Z,101188.47
2022-10-15T02:01:20.011Z,101184.97
2022-10-15T02:03:49.566Z,101193.31
2022-10-15T02:06:23.474Z,101186.47
2022-10-15T02:09:04.494Z,101184.03
2022-10-15T02:11:38.243Z,101193.31
2022-10-15T02:14:15.316Z,101200.06
2022-10-15T02:16:49.102Z,101186.72
2022-10-15T02:19:22.907Z,101190.34
2022-10-15T02:21:56.396Z,101197.56
2022-10-15T02:24:27.619Z,101195.41
2022-10-15T02:26:58.804Z,101195.53
2022-10-15T02:29:32.982Z,101194.84
2022-10-15T02:32:03.478Z,101206.03
2022-10-15T02:34:34.114Z,101204.56
2022-10-15T02:37:04.879Z,101205.53
2022-10-15T02:39:33.088Z,101197.75
2022-10-15T02:42:02.297Z,101202.13
2022-10-15T02:44:30.230Z,101198.81
2022-10-15T02:47:00.314Z,101206.69
2022-10-15T02:49:29.629Z,101211.41
2022-10-15T02:51:57.566Z,101206.31
2022-10-15T02:54:25.534Z,101202.13
2022-10-15T02:56:53.450Z,101194.47
2022-10-15T02:59:22.081Z,101199.63
2022-10-15T03:01:50.254Z,101195.91
2022-10-15T03:04:18.258Z,101202.88
2022-10-15T03:06:47.839Z,101146.50
2022-10-15T03:09:15.882Z,101194.47
2022-10-15T03:11:43.899Z,101195.41
2022-10-15T03:14:12.110Z,101197.25
2022-10-15T03:16:40.131Z,101198.41
2022-10-15T03:19:08.382Z,101202.00
2022-10-15T03:21:36.341Z,101203.03
2022-10-15T03:24:06.368Z,101205.00
2022-10-15T03:26:34.449Z,101207.66
2022-10-15T03:29:02.391Z,101193.00
2022-10-15T03:31:30.309Z,101202.53
2022-10-15T03:33:58.229Z,101207.75
2022-10-15T03:36:26.311Z,101205.06
2022-10-15T03:38:54.356Z,101202.47
2022-10-15T03:41:23.721Z,101201.59
2022-10-15T03:43:51.638Z,101210.28
2022-10-15T03:46:19.637Z,101199.31
2022-10-15T03:48:50.509Z,101202.03
2022-10-15T03:51:22.731Z,101201.69
2022-10-15T03:53:53.465Z,101208.63
2022-10-15T03:56:23.193Z,101202.00
2022-10-15T03:58:51.513Z,101203.66
2022-10-15T04:01:20.260Z,101199.47
2022-10-15T04:03:48.665Z,101209.53
2022-10-15T04:06:16.570Z,101215.69
2022-10-15T04:08:44.803Z,101205.41
2022-10-15T04:11:12.822Z,101210.34
2022-10-15T04:13:42.166Z,101211.28
2022-10-15T04:16:10.181Z,101215.50
2022-10-15T04:18:38.169Z,101210.44
2022-10-15T04:21:06.166Z,101221.00
2022-10-15T04:23:34.107Z,101213.44
2022-10-15T04:26:02.796Z,101210.88
2022-10-15T04:28:30.856Z,101217.53
2022-10-15T04:31:00.693Z,101222.53
2022-10-15T04:33:29.385Z,101218.94
2022-10-15T04:36:02.293Z,101219.03
2022-10-15T04:38:30.845Z,101217.28
2022-10-15T04:41:03.442Z,101225.22
2022-10-15T04:43:31.817Z,101222.38
2022-10-15T04:46:02.785Z,101224.84
2022-10-15T04:48:32.032Z,101223.91
2022-10-15T04:51:05.133Z,101226.59
2022-10-15T04:53:33.880Z,101231.84
2022-10-15T04:56:03.613Z,101235.34
2022-10-15T04:58:33.093Z,101228.50
2022-10-15T05:01:03.161Z,101235.34
2022-10-15T05:03:31.160Z,101222.81
2022-10-15T05:06:02.772Z,101232.66
2022-10-15T05:08:31.085Z,101239.09
2022-10-15T05:11:02.278Z,101226.38
2022-10-15T05:13:30.920Z,101234.63
2022-10-15T05:15:59.583Z,101223.25
2022-10-15T05:18:29.291Z,101239.06
2022-10-15T05:20:57.452Z,101232.75
2022-10-15T05:23:26.950Z,101236.75
2022-10-15T05:25:55.063Z,101233.59
2022-10-15T05:28:23.094Z,101238.53
2022-10-15T05:30:51.105Z,101240.53
2022-10-15T05:33:19.090Z,101219.44
2022-10-15T05:35:48.631Z,101254.16
2022-10-15T05:38:16.670Z,101250.41
2022-10-15T05:40:49.535Z,101249.72
2022-10-15T05:43:17.675Z,101250.00
2022-10-15T05:45:45.647Z,101258.19
2022-10-15T05:48:13.704Z,101254.34
2022-10-15T05:50:41.714Z,101247.84
2022-10-15T05:53:11.283Z,101262.59
2022-10-15T05:55:39.525Z,101269.47
2022-10-15T05:58:07.512Z,101271.97
2022-10-15T06:00:36.966Z,101269.09
2022-10-15T06:03:05.100Z,101244.41
2022-10-15T06:05:33.542Z,101280.66
2022-10-15T06:08:01.619Z,101282.25
2022-10-15T06:10:31.078Z,101283.84
2022-10-15T06:12:59.011Z,101285.69
2022-10-15T06:15:27.185Z,101287.31
2022-10-15T06:17:55.350Z,101291.78
2022-10-15T06:20:23.644Z,101287.69
2022-10-15T06:22:51.630Z,101283.84
2022-10-15T06:25:19.642Z,101287.69
2022-10-15T06:27:49.051Z,101288.06
2022-10-15T06:30:17.203Z,101281.59
2022-10-15T06:32:48.936Z,101284.34
2022-10-15T06:35:17.106Z,101283.66
2022-10-15T06:37:45.382Z,101285.84
2022-10-15T06:40:14.262Z,101296.75
2022-10-15T06:42:43.088Z,101295.44
2022-10-15T06:45:14.876Z,101298.53
2022-10-15T06:47:44.859Z,101290.69
2022-10-15T06:50:13.014Z,101295.41
2022-10-15T06:52:41.030Z,101298.31
2022-10-15T06:55:09.709Z,101302.16
2022-10-15T06:57:37.767Z,101299.28
2022-10-15T07:00:06.518Z,101305.53
2022-10-15T07:02:37.828Z,101296.88
2022-10-15T07:05:06.588Z,101298.25
2022-10-15T07:07:34.525Z,101301.25
2022-10-15T07:10:02.528Z,101296.75
2022-10-15T07:12:30.490Z,101293.31
2022-10-15T07:14:58.482Z,101291.84
2022-10-15T07:17:26.509Z,101290.91
2022-10-15T07:19:55.882Z,101295.28
2022-10-15T07:22:24.230Z,101300.91
2022-10-15T07:24:52.417Z,101300.00
2022-10-15T07:27:20.898Z,101288.81
2022-10-15T07:29:48.997Z,101289.06
2022-10-15T07:32:16.955Z,101296.22
2022-10-15T07:34:44.939Z,101297.78
2022-10-15T07:37:14.840Z,101288.66
2022-10-15T07:39:43.432Z,101305.19
2022-10-15T07:44:44.541Z,101294.75
2022-10-15T07:47:12.549Z,101295.75
2022-10-15T07:49:40.785Z,101293.44
2022-10-15T07:52:09.641Z,101296.56
2022-10-15T07:54:39.329Z,101290.56
2022-10-15T07:57:08.424Z,101292.31
2022-10-15T07:59:36.645Z,101298.53
2022-10-15T08:02:04.593Z,101300.66
2022-10-15T08:04:34.797Z,101305.59
2022-10-15T08:07:05.732Z,101306.94
2022-10-15T08:09:36.316Z,101291.91
2022-10-15T08:12:07.155Z,101301.72
2022-10-15T08:14:35.789Z,101298.84
2022-10-15T08:17:04.733Z,101306.66
2022-10-15T08:19:32.962Z,101310.84
2022-10-15T08:22:01.266Z,101308.34
2022-10-15T08:24:30.357Z,101312.66
2022-10-15T08:26:58.773Z,101304.28
2022-10-15T08:29:28.250Z,101306.06
2022-10-15T08:31:56.177Z,101303.81
2022-10-15T08:34:24.579Z,101308.28
2022-10-15T08:36:52.714Z,101309.38
2022-10-15T08:39:20.800Z,101308.63
2022-10-15T08:41:52.554Z,101311.63
2022-10-15T08:44:27.750Z,101309.00
2022-10-15T08:47:02.899Z,101309.56
2022-10-15T08:49:42.832Z,101312.38
2022-10-15T08:52:21.487Z,101307.47
2022-10-15T08:54:49.738Z,101308.84
2022-10-15T08:57:39.631Z,101308.84
2022-10-15T09:00:17.297Z,101316.16
2022-10-15T09:02:53.689Z,101316.13
2022-10-15T09:05:29.923Z,101323.13
2022-10-15T09:08:04.171Z,101326.16
2022-10-15T09:10:40.857Z,101321.78
2022-10-15T09:13:16.221Z,101318.25
2022-10-15T09:15:50.830Z,101315.22
2022-10-15T09:18:24.760Z,101315.34
2022-10-15T09:20:54.615Z,101316.38
2022-10-15T09:23:25.188Z,101312.22
2022-10-15T09:26:00.431Z,101302.94
2022-10-15T09:28:35.763Z,101308.59
2022-10-15T09:31:04.022Z,101308.25
2022-10-15T09:33:40.207Z,101307.59
2022-10-15T09:36:27.602Z,101304.97
2022-10-15T09:39:06.260Z,101300.28
2022-10-15T09:41:44.558Z,101297.97
2022-10-15T09:44:17.402Z,101303.84
2022-10-15T09:46:49.629Z,101307.69
2022-10-15T09:49:25.222Z,101303.00
2022-10-15T09:52:01.579Z,101291.59
2022-10-15T09:54:39.951Z,101309.06
2022-10-15T09:57:10.921Z,101303.53
2022-10-15T09:59:38.994Z,101309.72
2022-10-15T10:02:20.649Z,101297.03
2022-10-15T10:04:50.345Z,101306.47
2022-10-15T10:07:33.623Z,101293.09
2022-10-15T10:10:05.224Z,101292.56
2022-10-15T10:12:36.599Z,101292.00
2022-10-15T10:15:09.898Z,101280.88
2022-10-15T10:17:38.340Z,101284.09
2022-10-15T10:20:19.929Z,101281.25
2022-10-15T10:22:51.559Z,101278.50
2022-10-15T10:25:40.262Z,101284.13
2022-10-15T10:28:18.425Z,101275.63
2022-10-15T10:30:55.137Z,101273.91
2022-10-15T10:33:28.130Z,101267.13
2022-10-15T10:35:58.371Z,101272.13
2022-10-15T10:38:30.233Z,101273.38
2022-10-15T10:41:05.642Z,101272.31
2022-10-15T10:43:39.138Z,101273.28
2022-10-15T10:46:19.200Z,101258.47
2022-10-15T10:48:49.042Z,101259.94
2022-10-15T10:51:21.048Z,101259.38
2022-10-15T10:53:55.533Z,101257.06
2022-10-15T10:56:25.810Z,101261.94
2022-10-15T10:58:59.205Z,101270.56
2022-10-15T11:01:28.211Z,101232.25
2022-10-15T11:03:56.407Z,101252.56
2022-10-15T11:06:46.101Z,101250.88
2022-10-15T11:09:31.268Z,101241.94
2022-10-15T11:12:13.487Z,101240.03
2022-10-15T11:14:49.589Z,101244.41
2022-10-15T11:17:27.286Z,101240.38
2022-10-15T11:22:57.926Z,101236.06
2022-10-15T11:25:35.948Z,101234.63
2022-10-15T11:28:30.312Z,101220.34
2022-10-15T11:31:03.888Z,101235.13
2022-10-15T11:33:52.705Z,101226.28
2022-10-15T11:36:38.019Z,101227.72
2022-10-15T11:39:25.612Z,101226.56
2022-10-15T11:42:01.061Z,101217.94
2022-10-15T11:44:50.619Z,101211.88
2022-10-15T11:47:34.595Z,101219.38
2022-10-15T11:50:13.307Z,101211.75
2022-10-15T11:52:53.857Z,101215.66
2022-10-15T11:55:27.563Z,101213.88
2022-10-15T11:58:01.214Z,101202.91
2022-10-15T12:00:34.889Z,101209.00
2022-10-15T12:03:08.989Z,101203.03
2022-10-15T12:05:41.657Z,101204.59
2022-10-15T12:08:14.017Z,101202.31
2022-10-15T12:11:01.158Z,101202.66
2022-10-15T12:13:35.830Z,101198.97
2022-10-15T12:16:15.835Z,101209.13
2022-10-15T12:18:50.614Z,101205.06
2022-10-15T12:21:35.086Z,101199.19
2022-10-15T12:24:03.730Z,101204.31
2022-10-15T12:26:34.497Z,101211.94
2022-10-15T12:29:05.346Z,101214.16
2022-10-15T12:31:48.490Z,101214.78
2022-10-15T12:34:33.789Z,101210.06
2022-10-15T12:37:04.575Z,101217.44
2022-10-15T12:39:48.037Z,101207.88
2022-10-15T12:42:27.588Z,101207.19
2022-10-15T12:44:57.815Z,101200.22
2022-10-15T12:47:50.882Z,101209.59
2022-10-15T12:50:20.987Z,101210.19
2022-10-15T12:53:00.428Z,101209.13
2022-10-15T12:55:32.175Z,101208.41
2022-10-15T12:58:05.082Z,101204.81
2022-10-15T13:00:44.192Z,101206.13
2022-10-15T13:03:34.026Z,101210.53
2022-10-15T13:06:23.802Z,101212.09
2022-10-15T13:08:55.291Z,101214.50
2022-10-15T13:11:26.127Z,101214.81
2022-10-15T13:14:00.611Z,101214.50
2022-10-15T13:16:29.395Z,101216.75
2022-10-15T13:18:59.200Z,101210.31
2022-10-15T13:21:52.485Z,101207.78
2022-10-15T13:24:22.674Z,101218.56
2022-10-15T13:26:51.621Z,101208.50
2022-10-15T13:29:23.963Z,101218.41
2022-10-15T13:31:53.209Z,101220.19
2022-10-15T13:34:28.728Z,101222.72
2022-10-15T13:36:58.897Z,101222.94
2022-10-15T13:42:11.022Z,101219.63
2022-10-15T13:44:40.866Z,101219.63
2022-10-15T13:47:27.125Z,101225.09
2022-10-15T13:50:13.654Z,101229.75
2022-10-15T13:52:43.776Z,101231.31
2022-10-15T13:55:23.633Z,101214.84
2022-10-15T13:57:57.180Z,101233.69
2022-10-15T14:00:29.863Z,101223.81
2022-10-15T14:03:20.745Z,101225.09
2022-10-15T14:05:50.564Z,101224.88
2022-10-15T14:08:21.544Z,101220.69
2022-10-15T14:10:51.080Z,101225.72
2022-10-15T14:13:19.662Z,101220.34
2022-10-15T14:15:54.992Z,101212.91
2022-10-15T14:18:32.843Z,101215.31
2022-10-15T14:21:01.786Z,101217.56
2022-10-15T14:23:30.131Z,101218.50
2022-10-15T14:26:01.809Z,101221.28
2022-10-15T14:28:32.152Z,101219.97
2022-10-15T14:31:02.905Z,101209.56
2022-10-15T14:33:46.698Z,101213.09
2022-10-15T14:36:24.790Z,101198.22
2022-10-15T14:38:54.066Z,101202.41
2022-10-15T14:41:30.760Z,101203.97
2022-10-15T14:44:07.254Z,101200.50
2022-10-15T14:46:41.706Z,101197.41
2022-10-15T14:49:23.526Z,101202.34
2022-10-15T14:52:02.431Z,101203.44
2022-10-15T14:54:36.935Z,101206.38
2022-10-15T14:57:06.227Z,101202.59
2022-10-15T14:59:38.589Z,101205.84
2022-10-15T15:02:15.143Z,101198.00
2022-10-15T15:04:45.523Z,101206.16
2022-10-15T15:07:16.498Z,101206.13
2022-10-15T15:09:44.715Z,101202.53
2022-10-15T15:12:21.712Z,101201.03
2022-10-15T15:14:52.678Z,101204.13
2022-10-15T15:17:24.166Z,101206.19
2022-10-15T15:19:54.617Z,101203.44
2022-10-15T15:22:28.361Z,101207.47
2022-10-15T15:24:56.692Z,101208.16
2022-10-15T15:27:27.555Z,101203.22
2022-10-15T15:29:56.662Z,101212.63
2022-10-15T15:32:26.707Z,101207.69
2022-10-15T15:34:56.326Z,101218.16
2022-10-15T15:37:26.260Z,101219.78
2022-10-15T15:39:55.618Z,101218.84
2022-10-15T15:42:25.435Z,101214.66
2022-10-15T15:44:54.118Z,101222.00
2022-10-15T15:47:22.150Z,101221.94
2022-10-15T15:49:51.747Z,101219.19
2022-10-15T15:52:19.757Z,101218.88
2022-10-15T15:54:48.062Z,101225.97
2022-10-15T15:57:16.775Z,101228.06
2022-10-15T15:59:44.874Z,101235.59
2022-10-15T16:02:13.771Z,101224.63
2022-10-15T16:04:41.806Z,101232.56
2022-10-15T16:07:13.430Z,101241.56
2022-10-15T16:09:41.936Z,101243.13
2022-10-15T16:12:09.912Z,101243.84
2022-10-15T16:14:37.997Z,101244.81
2022-10-15T16:17:06.045Z,101245.94
2022-10-15T16:19:34.030Z,101258.59
2022-10-15T16:22:02.326Z,101257.09
2022-10-15T16:24:31.906Z,101256.06
2022-10-15T16:26:59.975Z,101256.28
2022-10-15T16:29:28.085Z,101267.19
2022-10-15T16:31:56.367Z,101271.84
2022-10-15T16:34:25.142Z,101269.44
2022-10-15T16:36:53.244Z,101272.03
2022-10-15T16:39:21.414Z,101281.81
2022-10-15T16:41:51.322Z,101263.50
2022-10-15T16:44:19.324Z,101276.31
2022-10-15T16:46:47.588Z,101273.50
2022-10-15T16:49:15.688Z,101281.38
2022-10-15T16:51:43.958Z,101283.59
2022-10-15T16:54:15.566Z,101278.97
2022-10-15T16:56:45.383Z,101291.28
2022-10-15T16:59:17.358Z,101300.91
2022-10-15T17:01:45.392Z,101299.63
2022-10-15T17:04:13.447Z,101307.19
2022-10-15T17:06:41.574Z,101284.31
2022-10-15T17:09:10.051Z,101307.59
2022-10-15T17:11:39.553Z,101308.84
2022-10-15T17:14:09.402Z,101308.22
2022-10-15T17:16:41.059Z,101315.97
2022-10-15T17:19:10.534Z,101310.69
2022-10-15T17:21:42.367Z,101314.97
2022-10-15T17:24:13.517Z,101311.59
2022-10-15T17:26:43.239Z,101311.94
2022-10-15T17:29:13.100Z,101315.63
2022-10-15T17:31:42.991Z,101312.53
2022-10-15T17:34:12.745Z,101311.97
2022-10-15T17:36:45.658Z,101309.88
2022-10-15T17:39:17.451Z,101319.63
2022-10-15T17:41:45.990Z,101313.81
2022-10-15T17:44:14.212Z,101322.94
2022-10-15T17:46:43.983Z,101321.72
2022-10-15T17:49:14.019Z,101315.69
2022-10-15T17:51:42.102Z,101323.13
2022-10-15T17:54:10.108Z,101325.53
2022-10-15T17:56:40.021Z,101323.88
2022-10-15T17:59:10.308Z,101322.69
2022-10-15T18:01:57.345Z,101330.91
2022-10-15T18:04:28.273Z,101340.16
2022-10-15T18:06:56.354Z,101336.75
2022-10-15T18:09:24.455Z,101339.63
2022-10-15T18:11:52.585Z,101334.88
2022-10-15T18:16:49.209Z,101342.69
2022-10-15T18:19:17.286Z,101336.00
2022-10-15T18:21:49.533Z,101340.53
2022-10-15T18:24:21.587Z,101338.06
2022-10-15T18:26:50.299Z,101351.13
2022-10-15T18:29:18.999Z,101348.06
2022-10-15T18:31:51.147Z,101354.66
2022-10-15T18:34:21.734Z,101352.16
2022-10-15T18:36:51.205Z,101354.75
2022-10-15T18:39:19.566Z,101359.78
2022-10-15T18:41:47.839Z,101357.19
2022-10-15T18:44:17.666Z,101366.72
2022-10-15T18:46:46.073Z,101361.78
2022-10-15T18:49:16.212Z,101369.00
2022-10-15T18:51:46.210Z,101367.47
2022-10-15T18:54:15.706Z,101372.31
2022-10-15T18:56:43.769Z,101372.09
2022-10-15T18:59:11.833Z,101377.88
2022-10-15T19:01:43.290Z,101387.25
2022-10-15T19:04:13.339Z,101382.38
2022-10-15T19:06:43.277Z,101383.44
2022-10-15T19:09:13.228Z,101379.94
2022-10-15T19:11:44.940Z,101397.56
2022-10-15T19:14:13.698Z,101399.75
2022-10-15T19:16:41.791Z,101404.09
2022-10-15T19:19:10.218Z,101398.97
2022-10-15T19:21:38.526Z,101406.75
2022-10-15T19:24:07.052Z,101401.06
2022-10-15T19:26:35.614Z,101403.00
2022-10-15T19:29:05.623Z,101403.53
2022-10-15T19:31:35.811Z,101410.41
2022-10-15T19:34:04.588Z,101408.59
2022-10-15T19:36:35.567Z,101407.69
2022-10-15T19:39:06.022Z,101406.84
2022-10-15T19:41:36.602Z,101407.63
2022-10-15T19:44:08.367Z,101405.16
2022-10-15T19:46:36.634Z,101404.19
2022-10-15T19:49:05.406Z,101406.81
2022-10-15T19:51:33.485Z,101405.31
2022-10-15T19:54:01.470Z,101386.97
2022-10-15T19:56:29.479Z,101410.66
2022-10-15T19:58:58.058Z,101410.88
2022-10-15T20:01:28.714Z,101414.22
2022-10-15T20:04:01.624Z,101408.97
2022-10-15T20:06:33.314Z,101420.03
2022-10-15T20:09:02.330Z,101417.53
2022-10-15T20:11:30.550Z,101413.09
2022-10-15T20:13:59.692Z,101405.66
2022-10-15T20:16:32.734Z,101412.53
2022-10-15T20:19:02.530Z,101418.50
2022-10-15T20:21:30.736Z,101415.19
2022-10-15T20:23:58.930Z,101421.22
2022-10-15T20:26:26.938Z,101425.38
2022-10-15T20:28:54.922Z,101423.06
2022-10-15T20:31:28.542Z,101426.50
2022-10-15T20:33:57.930Z,101419.91
2022-10-15T20:36:27.402Z,101423.34
2022-10-15T20:38:55.789Z,101420.94
2022-10-15T20:41:23.802Z,101420.84
2022-10-15T20:43:55.466Z,101414.13
2022-10-15T20:46:28.257Z,101420.44
2022-10-15T20:49:02.258Z,101422.44
2022-10-15T20:51:34.598Z,101415.69
2022-10-15T20:54:03.503Z,101426.03
2022-10-15T20:56:31.740Z,101421.19
2022-10-15T20:58:59.892Z,101422.44
2022-10-15T21:01:28.177Z,101415.50
2022-10-15T21:03:57.619Z,101422.16
2022-10-15T21:06:25.706Z,101423.84
2022-10-15T21:08:53.674Z,101418.63
2022-10-15T21:11:21.757Z,101422.06
2022-10-15T21:13:49.706Z,101425.47
2022-10-15T21:16:18.018Z,101419.22
2022-10-15T21:18:46.118Z,101425.31
2022-10-15T21:21:16.328Z,101427.13
2022-10-15T21:23:44.343Z,101433.59
2022-10-15T21:26:14.298Z,101433.84
2022-10-15T21:28:42.832Z,101427.34
2022-10-15T21:31:13.141Z,101438.19
2022-10-15T21:33:41.818Z,101438.97
2022-10-15T21:36:16.186Z,101424.75
2022-10-15T21:38:44.138Z,101435.34
2022-10-15T21:41:12.185Z,101437.78
2022-10-15T21:43:40.515Z,101434.94
2022-10-15T21:46:09.824Z,101433.59
2022-10-15T21:48:38.890Z,101434.81
2022-10-15T21:51:11.011Z,101434.81
2022-10-15T21:53:40.877Z,101431.50
2022-10-15T21:56:09.322Z,101433.25
2022-10-15T21:58:38.726Z,101429.69
2022-10-15T22:01:13.479Z,101431.06
2022-10-15T22:03:44.325Z,101429.03
2022-10-15T22:06:13.285Z,101426.78
2022-10-15T22:08:43.756Z,101430.56
2022-10-15T22:11:14.594Z,101433.16
2022-10-15T22:13:43.736Z,101431.63
2022-10-15T22:16:12.683Z,101434.88
2022-10-15T22:18:41.231Z,101437.25
2022-10-15T22:21:15.299Z,101437.25
2022-10-15T22:23:46.507Z,101435.13
2022-10-15T22:26:15.663Z,101431.44
2022-10-15T22:28:45.038Z,101439.47
2022-10-15T22:31:16.752Z,101437.81
2022-10-15T22:33:45.859Z,101443.00
2022-10-15T22:36:17.158Z,101437.25
2022-10-15T22:38:49.141Z,101441.41
2022-10-15T22:41:17.670Z,101444.78
2022-10-15T22:43:46.165Z,101449.97
2022-10-15T22:46:14.529Z,101452.97
2022-10-15T22:48:43.716Z,101456.81
2022-10-15T22:51:14.681Z,101467.72
2022-10-15T22:53:43.191Z,101466.47
2022-10-15T22:56:16.458Z,101475.94
2022-10-15T22:58:45.663Z,101472.69
2022-10-15T23:01:16.034Z,101479.84
2022-10-15T23:03:46.944Z,101469.88
2022-10-15T23:06:15.537Z,101478.00
2022-10-15T23:08:45.398Z,101477.38
2022-10-15T23:11:17.118Z,101477.63
2022-10-15T23:13:46.414Z,101466.19
2022-10-15T23:16:16.863Z,101474.13
2022-10-15T23:18:46.952Z,101472.75
2022-10-15T23:21:17.706Z,101482.16
2022-10-15T23:23:47.031Z,101477.25
2022-10-15T23:26:17.558Z,101487.66
2022-10-15T23:28:46.401Z,101476.81
2022-10-15T23:31:18.285Z,101476.19
2022-10-15T23:33:46.261Z,101479.19
2022-10-15T23:36:14.674Z,101462.78
2022-10-15T23:38:42.808Z,101486.59
2022-10-15T23:41:11.552Z,101482.56
2022-10-15T23:43:40.873Z,101489.69
2022-10-15T23:46:09.114Z,101497.63
2022-10-15T23:48:37.789Z,101497.06
2022-10-15T23:51:13.538Z,101502.28
2022-10-15T23:53:42.114Z,101499.16
2022-10-15T23:56:10.053Z,101505.28
2022-10-15T23:58:38.910Z,101507.25
